sensor_id;sensor_type;location;lat;lon;timestamp;pressure;altitude;pressure_sealevel;temperature;humidity
29879;BME280;16752;53.364;-1.488;2023-12-07T00:00:44;100233.56;;;9.41;51.25
29879;BME280;16752;53.364;-1.488;2023-12-07T00:03:28;100235.97;;;9.44;51.24
29879;BME280;16752;53.364;-1.488;2023-12-07T00:06:12;100214.00;;;9.19;51.70
29879;BME280;16752;53.364;-1.488;2023-12-07T00:08:55;100232.50;;;9.02;52.04
29879;BME280;16752;53.364;-1.488;2023-12-07T00:11:40;100216.97;;;9.28;51.57
29879;BME280;16752;53.364;-1.488;2023-12-07T00:14:24;100217.53;;;9.33;51.68
29879;BME280;16752;53.364;-1.488;2023-12-07T00:17:08;100196.09;;;9.13;51.55
29879;BME280;16752;53.364;-1.488;2023-12-07T00:19:52;100208.56;;;9.37;51.27
29879;BME280;16752;53.364;-1.488;2023-12-07T00:22:37;100211.44;;;9.32;51.68
29879;BME280;16752;53.364;-1.488;2023-12-07T00:25:21;100206.19;;;9.46;51.48
29879;BME280;16752;53.364;-1.488;2023-12-07T00:28:06;100200.66;;;9.51;51.06
29879;BME280;16752;53.364;-1.488;2023-12-07T00:30:49;100200.31;;;9.43;51.37
29879;BME280;16752;53.364;-1.488;2023-12-07T00:33:34;100197.31;;;9.49;51.18
29879;BME280;16752;53.364;-1.488;2023-12-07T00:36:18;100198.13;;;9.49;51.09
29879;BME280;16752;53.364;-1.488;2023-12-07T00:39:02;100155.38;;;9.24;51.30
29879;BME280;16752;53.364;-1.488;2023-12-07T00:41:48;100186.22;;;9.45;51.22
29879;BME280;16752;53.364;-1.488;2023-12-07T00:44:32;100188.19;;;9.42;51.36
29879;BME280;16752;53.364;-1.488;2023-12-07T00:47:16;100171.75;;;9.40;51.11
29879;BME280;16752;53.364;-1.488;2023-12-07T00:50:00;100161.69;;;9.34;51.15
29879;BME280;16752;53.364;-1.488;2023-12-07T00:52:44;100168.09;;;9.42;51.26
29879;BME280;16752;53.364;-1.488;2023-12-07T00:55:28;100142.84;;;9.29;51.62
29879;BME280;16752;53.364;-1.488;2023-12-07T00:58:12;100148.66;;;9.19;51.70
29879;BME280;16752;53.364;-1.488;2023-12-07T01:00:57;100152.81;;;9.36;50.96
29879;BME280;16752;53.364;-1.488;2023-12-07T01:03:41;100135.88;;;9.15;51.54
29879;BME280;16752;53.364;-1.488;2023-12-07T01:06:25;100120.41;;;9.12;51.32
29879;BME280;16752;53.364;-1.488;2023-12-07T01:09:09;100140.38;;;9.13;51.73
29879;BME280;16752;53.364;-1.488;2023-12-07T01:11:57;100154.53;;;9.23;51.63
29879;BME280;16752;53.364;-1.488;2023-12-07T01:14:42;100114.50;;;9.08;51.54
29879;BME280;16752;53.364;-1.488;2023-12-07T01:17:26;100142.41;;;9.22;51.68
29879;BME280;16752;53.364;-1.488;2023-12-07T01:20:10;100130.38;;;9.19;51.38
29879;BME280;16752;53.364;-1.488;2023-12-07T01:22:56;100145.44;;;9.29;51.65
29879;BME280;16752;53.364;-1.488;2023-12-07T01:25:40;100134.25;;;9.27;51.61
29879;BME280;16752;53.364;-1.488;2023-12-07T01:28:24;100137.81;;;9.26;51.70
29879;BME280;16752;53.364;-1.488;2023-12-07T01:31:08;100117.28;;;9.19;51.59
29879;BME280;16752;53.364;-1.488;2023-12-07T01:33:52;100112.56;;;9.12;51.96
29879;BME280;16752;53.364;-1.488;2023-12-07T01:36:36;100142.19;;;8.84;53.33
29879;BME280;16752;53.364;-1.488;2023-12-07T01:39:20;100122.41;;;8.80;53.73
29879;BME280;16752;53.364;-1.488;2023-12-07T01:42:04;100126.41;;;9.27;52.64
29879;BME280;16752;53.364;-1.488;2023-12-07T01:44:48;100147.09;;;9.44;52.22
29879;BME280;16752;53.364;-1.488;2023-12-07T01:47:33;100102.53;;;9.45;51.78
29879;BME280;16752;53.364;-1.488;2023-12-07T01:50:19;100134.94;;;9.70;51.28
29879;BME280;16752;53.364;-1.488;2023-12-07T01:53:07;100131.56;;;9.55;51.85
29879;BME280;16752;53.364;-1.488;2023-12-07T01:55:52;100116.59;;;9.57;52.16
29879;BME280;16752;53.364;-1.488;2023-12-07T01:58:38;100119.75;;;9.62;51.96
29879;BME280;16752;53.364;-1.488;2023-12-07T02:01:22;100106.72;;;9.48;52.60
29879;BME280;16752;53.364;-1.488;2023-12-07T02:04:06;100091.41;;;9.56;52.40
29879;BME280;16752;53.364;-1.488;2023-12-07T02:06:53;100088.81;;;9.82;51.62
29879;BME280;16752;53.364;-1.488;2023-12-07T02:09:38;100083.06;;;9.76;51.85
29879;BME280;16752;53.364;-1.488;2023-12-07T02:12:22;100076.25;;;9.87;51.75
29879;BME280;16752;53.364;-1.488;2023-12-07T02:15:06;100079.19;;;9.82;51.41
29879;BME280;16752;53.364;-1.488;2023-12-07T02:21:22;100078.34;;;9.82;51.69
29879;BME280;16752;53.364;-1.488;2023-12-07T02:24:11;100078.34;;;9.94;51.38
29879;BME280;16752;53.364;-1.488;2023-12-07T02:26:55;100082.75;;;9.94;51.31
29879;BME280;16752;53.364;-1.488;2023-12-07T02:29:39;100079.59;;;9.89;51.42
29879;BME280;16752;53.364;-1.488;2023-12-07T02:32:23;100077.31;;;9.84;51.83
29879;BME280;16752;53.364;-1.488;2023-12-07T02:35:08;100072.28;;;9.94;51.32
29879;BME280;16752;53.364;-1.488;2023-12-07T02:37:54;100060.34;;;9.90;51.27
29879;BME280;16752;53.364;-1.488;2023-12-07T02:40:39;100044.47;;;9.80;51.65
29879;BME280;16752;53.364;-1.488;2023-12-07T02:43:24;100035.75;;;9.67;51.66
29879;BME280;16752;53.364;-1.488;2023-12-07T02:46:08;100029.53;;;9.42;52.62
29879;BME280;16752;53.364;-1.488;2023-12-07T02:48:52;100035.09;;;9.50;52.75
29879;BME280;16752;53.364;-1.488;2023-12-07T02:51:36;100033.00;;;9.43;52.64
29879;BME280;16752;53.364;-1.488;2023-12-07T02:54:19;100023.22;;;9.32;53.41
29879;BME280;16752;53.364;-1.488;2023-12-07T02:57:04;100020.59;;;9.59;52.85
29879;BME280;16752;53.364;-1.488;2023-12-07T02:59:48;100013.34;;;9.75;52.44
29879;BME280;16752;53.364;-1.488;2023-12-07T03:02:34;99997.50;;;9.26;53.34
29879;BME280;16752;53.364;-1.488;2023-12-07T03:05:18;100011.91;;;9.19;53.99
29879;BME280;16752;53.364;-1.488;2023-12-07T03:08:04;99996.50;;;9.41;53.41
29879;BME280;16752;53.364;-1.488;2023-12-07T03:10:48;99999.00;;;9.43;53.80
29879;BME280;16752;53.364;-1.488;2023-12-07T03:13:32;99999.50;;;9.23;54.70
29879;BME280;16752;53.364;-1.488;2023-12-07T03:16:16;100000.28;;;9.75;53.02
29879;BME280;16752;53.364;-1.488;2023-12-07T03:19:01;99988.63;;;9.29;54.17
29879;BME280;16752;53.364;-1.488;2023-12-07T03:21:45;99990.22;;;9.44;53.57
29879;BME280;16752;53.364;-1.488;2023-12-07T03:24:29;99971.41;;;10.02;52.39
29879;BME280;16752;53.364;-1.488;2023-12-07T03:27:13;99987.53;;;10.22;51.68
29879;BME280;16752;53.364;-1.488;2023-12-07T03:29:57;99965.91;;;10.18;51.54
29879;BME280;16752;53.364;-1.488;2023-12-07T03:32:41;99956.59;;;10.14;51.51
29879;BME280;16752;53.364;-1.488;2023-12-07T03:35:25;99945.63;;;9.96;52.25
29879;BME280;16752;53.364;-1.488;2023-12-07T03:38:09;99952.75;;;10.07;52.15
29879;BME280;16752;53.364;-1.488;2023-12-07T03:40:53;99937.94;;;9.44;53.61
29879;BME280;16752;53.364;-1.488;2023-12-07T03:43:37;99944.94;;;9.69;53.54
29879;BME280;16752;53.364;-1.488;2023-12-07T03:46:21;99951.13;;;9.80;53.13
29879;BME280;16752;53.364;-1.488;2023-12-07T03:49:05;99948.38;;;9.69;53.77
29879;BME280;16752;53.364;-1.488;2023-12-07T03:51:49;99945.34;;;9.75;53.51
29879;BME280;16752;53.364;-1.488;2023-12-07T03:54:33;99937.09;;;9.43;54.50
29879;BME280;16752;53.364;-1.488;2023-12-07T03:57:17;99927.34;;;9.20;55.10
29879;BME280;16752;53.364;-1.488;2023-12-07T04:00:01;99927.03;;;9.25;54.80
29879;BME280;16752;53.364;-1.488;2023-12-07T04:02:47;99913.22;;;9.73;53.88
29879;BME280;16752;53.364;-1.488;2023-12-07T04:05:31;99920.50;;;10.06;52.79
29879;BME280;16752;53.364;-1.488;2023-12-07T04:08:16;99925.13;;;10.03;52.92
29879;BME280;16752;53.364;-1.488;2023-12-07T04:11:00;99923.50;;;9.51;54.23
29879;BME280;16752;53.364;-1.488;2023-12-07T04:13:45;99914.91;;;9.74;53.65
29879;BME280;16752;53.364;-1.488;2023-12-07T04:16:29;99910.44;;;10.13;52.58
29879;BME280;16752;53.364;-1.488;2023-12-07T04:19:13;99900.75;;;9.90;53.27
29879;BME280;16752;53.364;-1.488;2023-12-07T04:21:57;99899.41;;;9.84;53.49
29879;BME280;16752;53.364;-1.488;2023-12-07T04:24:41;99893.44;;;10.31;52.38
29879;BME280;16752;53.364;-1.488;2023-12-07T04:27:25;99859.75;;;10.27;51.95
29879;BME280;16752;53.364;-1.488;2023-12-07T04:30:10;99876.56;;;9.99;52.91
29879;BME280;16752;53.364;-1.488;2023-12-07T04:32:54;99878.78;;;9.92;53.88
29879;BME280;16752;53.364;-1.488;2023-12-07T04:35:37;99872.44;;;9.71;54.24
29879;BME280;16752;53.364;-1.488;2023-12-07T04:38:21;99854.97;;;9.71;54.09
29879;BME280;16752;53.364;-1.488;2023-12-07T04:41:05;99850.72;;;9.19;55.35
29879;BME280;16752;53.364;-1.488;2023-12-07T04:43:50;99835.84;;;8.69;57.58
29879;BME280;16752;53.364;-1.488;2023-12-07T04:46:34;99833.75;;;8.74;57.33
29879;BME280;16752;53.364;-1.488;2023-12-07T04:49:18;99839.53;;;9.17;56.49
29879;BME280;16752;53.364;-1.488;2023-12-07T04:52:03;99833.91;;;9.86;54.75
29879;BME280;16752;53.364;-1.488;2023-12-07T04:54:47;99825.50;;;9.44;55.73
29879;BME280;16752;53.364;-1.488;2023-12-07T04:57:36;99834.38;;;9.54;55.10
29879;BME280;16752;53.364;-1.488;2023-12-07T05:00:20;99813.34;;;9.68;55.21
29879;BME280;16752;53.364;-1.488;2023-12-07T05:03:05;99832.38;;;10.07;54.36
29879;BME280;16752;53.364;-1.488;2023-12-07T05:05:49;99826.69;;;9.40;56.00
29879;BME280;16752;53.364;-1.488;2023-12-07T05:08:34;99836.50;;;9.24;56.33
29879;BME280;16752;53.364;-1.488;2023-12-07T05:11:17;99840.16;;;8.96;57.49
29879;BME280;16752;53.364;-1.488;2023-12-07T05:14:01;99831.78;;;9.91;55.30
29879;BME280;16752;53.364;-1.488;2023-12-07T05:16:47;99818.09;;;9.38;56.44
29879;BME280;16752;53.364;-1.488;2023-12-07T05:19:32;99822.25;;;8.64;58.14
29879;BME280;16752;53.364;-1.488;2023-12-07T05:22:16;99822.94;;;9.80;55.53
29879;BME280;16752;53.364;-1.488;2023-12-07T05:25:00;99819.78;;;9.75;55.78
29879;BME280;16752;53.364;-1.488;2023-12-07T05:27:44;99809.19;;;9.90;54.91
29879;BME280;16752;53.364;-1.488;2023-12-07T05:30:29;99821.34;;;10.38;53.72
29879;BME280;16752;53.364;-1.488;2023-12-07T05:33:13;99812.44;;;10.65;52.75
29879;BME280;16752;53.364;-1.488;2023-12-07T05:35:57;99781.34;;;10.13;53.34
29879;BME280;16752;53.364;-1.488;2023-12-07T05:38:42;99809.03;;;10.87;52.37
29879;BME280;16752;53.364;-1.488;2023-12-07T05:41:26;99819.09;;;10.69;52.75
29879;BME280;16752;53.364;-1.488;2023-12-07T05:44:10;99814.09;;;10.77;52.49
29879;BME280;16752;53.364;-1.488;2023-12-07T05:46:54;99803.75;;;9.56;55.66
29879;BME280;16752;53.364;-1.488;2023-12-07T05:49:38;99806.81;;;10.10;54.43
29879;BME280;16752;53.364;-1.488;2023-12-07T05:52:22;99798.72;;;10.26;54.07
29879;BME280;16752;53.364;-1.488;2023-12-07T05:55:06;99781.06;;;10.52;53.28
29879;BME280;16752;53.364;-1.488;2023-12-07T05:57:50;99796.06;;;9.66;56.23
29879;BME280;16752;53.364;-1.488;2023-12-07T06:00:35;99789.44;;;9.86;55.61
29879;BME280;16752;53.364;-1.488;2023-12-07T06:03:19;99769.91;;;9.78;55.69
29879;BME280;16752;53.364;-1.488;2023-12-07T06:06:03;99775.84;;;9.80;56.37
29879;BME280;16752;53.364;-1.488;2023-12-07T06:08:47;99749.34;;;10.33;54.85
29879;BME280;16752;53.364;-1.488;2023-12-07T06:11:32;99748.56;;;9.96;54.92
29879;BME280;16752;53.364;-1.488;2023-12-07T06:14:17;99748.78;;;9.69;56.34
29879;BME280;16752;53.364;-1.488;2023-12-07T06:17:01;99753.19;;;9.68;56.81
29879;BME280;16752;53.364;-1.488;2023-12-07T06:19:45;99757.44;;;10.06;55.37
29879;BME280;16752;53.364;-1.488;2023-12-07T06:22:29;99728.63;;;9.34;57.28
29879;BME280;16752;53.364;-1.488;2023-12-07T06:25:13;99736.91;;;9.52;57.16
29879;BME280;16752;53.364;-1.488;2023-12-07T06:27:57;99731.88;;;9.86;56.18
29879;BME280;16752;53.364;-1.488;2023-12-07T06:30:41;99730.69;;;9.90;55.95
29879;BME280;16752;53.364;-1.488;2023-12-07T06:33:25;99702.09;;;9.15;57.63
29879;BME280;16752;53.364;-1.488;2023-12-07T06:36:09;99699.53;;;9.39;57.50
29879;BME280;16752;53.364;-1.488;2023-12-07T06:38:53;99709.34;;;10.31;55.75
29879;BME280;16752;53.364;-1.488;2023-12-07T06:41:38;99697.34;;;10.28;55.52
29879;BME280;16752;53.364;-1.488;2023-12-07T06:44:22;99685.84;;;10.42;54.46
29879;BME280;16752;53.364;-1.488;2023-12-07T06:47:06;99706.63;;;8.87;59.90
29879;BME280;16752;53.364;-1.488;2023-12-07T06:49:50;99698.88;;;10.31;55.76
29879;BME280;16752;53.364;-1.488;2023-12-07T06:52:34;99695.19;;;9.74;57.05
29879;BME280;16752;53.364;-1.488;2023-12-07T06:55:19;99653.31;;;9.03;58.87
29879;BME280;16752;53.364;-1.488;2023-12-07T06:58:03;99664.72;;;10.21;55.84
29879;BME280;16752;53.364;-1.488;2023-12-07T07:00:47;99685.97;;;9.58;58.02
29879;BME280;16752;53.364;-1.488;2023-12-07T07:03:32;99675.75;;;9.90;56.96
29879;BME280;16752;53.364;-1.488;2023-12-07T07:06:16;99647.63;;;9.69;57.09
29879;BME280;16752;53.364;-1.488;2023-12-07T07:09:00;99669.59;;;9.43;58.82
29879;BME280;16752;53.364;-1.488;2023-12-07T07:11:47;99659.97;;;9.43;58.47
29879;BME280;16752;53.364;-1.488;2023-12-07T07:14:31;99619.97;;;9.06;59.50
29879;BME280;16752;53.364;-1.488;2023-12-07T07:17:15;99635.50;;;9.68;58.50
29879;BME280;16752;53.364;-1.488;2023-12-07T07:20:00;99660.91;;;9.66;58.19
29879;BME280;16752;53.364;-1.488;2023-12-07T07:22:44;99640.22;;;9.15;59.72
29879;BME280;16752;53.364;-1.488;2023-12-07T07:25:28;99636.81;;;9.98;57.71
29879;BME280;16752;53.364;-1.488;2023-12-07T07:28:12;99648.06;;;9.15;59.77
29879;BME280;16752;53.364;-1.488;2023-12-07T07:30:56;99651.06;;;9.70;59.06
29879;BME280;16752;53.364;-1.488;2023-12-07T07:33:40;99633.91;;;9.90;58.55
29879;BME280;16752;53.364;-1.488;2023-12-07T07:36:24;99646.97;;;9.78;59.15
29879;BME280;16752;53.364;-1.488;2023-12-07T07:39:08;99642.06;;;9.50;59.83
29879;BME280;16752;53.364;-1.488;2023-12-07T07:41:52;99634.25;;;9.85;59.49
29879;BME280;16752;53.364;-1.488;2023-12-07T07:44:36;99640.25;;;10.09;58.30
29879;BME280;16752;53.364;-1.488;2023-12-07T07:47:20;99645.97;;;10.72;56.50
29879;BME280;16752;53.364;-1.488;2023-12-07T07:50:05;99638.09;;;10.61;56.41
29879;BME280;16752;53.364;-1.488;2023-12-07T07:52:49;99632.50;;;10.43;57.51
29879;BME280;16752;53.364;-1.488;2023-12-07T07:55:33;99637.25;;;10.38;58.33
29879;BME280;16752;53.364;-1.488;2023-12-07T07:58:17;99642.50;;;10.49;57.58
29879;BME280;16752;53.364;-1.488;2023-12-07T08:01:01;99591.75;;;9.70;59.24
29879;BME280;16752;53.364;-1.488;2023-12-07T08:03:45;99628.44;;;10.84;56.65
29879;BME280;16752;53.364;-1.488;2023-12-07T08:06:29;99626.09;;;10.12;58.96
29879;BME280;16752;53.364;-1.488;2023-12-07T08:09:13;99621.34;;;10.06;59.39
29879;BME280;16752;53.364;-1.488;2023-12-07T08:11:57;99626.06;;;9.90;60.71
29879;BME280;16752;53.364;-1.488;2023-12-07T08:14:41;99594.66;;;9.78;59.92
29879;BME280;16752;53.364;-1.488;2023-12-07T08:17:27;99614.81;;;10.00;59.70
29879;BME280;16752;53.364;-1.488;2023-12-07T08:20:12;99607.78;;;10.01;60.05
29879;BME280;16752;53.364;-1.488;2023-12-07T08:22:59;99602.38;;;9.91;60.27
29879;BME280;16752;53.364;-1.488;2023-12-07T08:25:43;99609.66;;;10.45;59.45
29879;BME280;16752;53.364;-1.488;2023-12-07T08:28:27;99584.31;;;9.88;61.12
29879;BME280;16752;53.364;-1.488;2023-12-07T08:31:11;99573.44;;;9.70;61.34
29879;BME280;16752;53.364;-1.488;2023-12-07T08:33:55;99600.94;;;10.33;59.28
29879;BME280;16752;53.364;-1.488;2023-12-07T08:36:39;99586.00;;;11.12;57.55
29879;BME280;16752;53.364;-1.488;2023-12-07T08:39:22;99585.66;;;10.16;60.01
29879;BME280;16752;53.364;-1.488;2023-12-07T08:42:08;99584.03;;;10.60;58.29
29879;BME280;16752;53.364;-1.488;2023-12-07T08:44:51;99572.53;;;11.17;57.13
29879;BME280;16752;53.364;-1.488;2023-12-07T08:47:36;99570.97;;;10.37;59.05
29879;BME280;16752;53.364;-1.488;2023-12-07T08:50:20;99557.63;;;10.63;58.74
29879;BME280;16752;53.364;-1.488;2023-12-07T08:53:04;99566.41;;;10.06;60.49
29879;BME280;16752;53.364;-1.488;2023-12-07T08:55:48;99554.03;;;10.86;57.87
29879;BME280;16752;53.364;-1.488;2023-12-07T08:58:32;99556.69;;;10.30;60.15
29879;BME280;16752;53.364;-1.488;2023-12-07T09:01:16;99546.31;;;10.74;58.90
29879;BME280;16752;53.364;-1.488;2023-12-07T09:04:00;99545.44;;;9.84;61.64
29879;BME280;16752;53.364;-1.488;2023-12-07T09:06:44;99539.53;;;10.37;60.46
29879;BME280;16752;53.364;-1.488;2023-12-07T09:09:28;99506.63;;;10.89;58.47
29879;BME280;16752;53.364;-1.488;2023-12-07T09:12:13;99536.56;;;10.53;59.58
29879;BME280;16752;53.364;-1.488;2023-12-07T09:14:58;99524.75;;;10.59;60.18
29879;BME280;16752;53.364;-1.488;2023-12-07T09:17:42;99523.56;;;10.07;61.62
29879;BME280;16752;53.364;-1.488;2023-12-07T09:20:26;99520.69;;;9.88;61.84
29879;BME280;16752;53.364;-1.488;2023-12-07T09:23:10;99506.97;;;10.42;60.28
29879;BME280;16752;53.364;-1.488;2023-12-07T09:25:54;99499.66;;;10.11;60.79
29879;BME280;16752;53.364;-1.488;2023-12-07T09:28:37;99518.06;;;11.20;58.44
29879;BME280;16752;53.364;-1.488;2023-12-07T09:31:23;99518.69;;;10.02;61.96
29879;BME280;16752;53.364;-1.488;2023-12-07T09:34:07;99507.88;;;10.52;59.89
29879;BME280;16752;53.364;-1.488;2023-12-07T09:37:10;99506.81;;;10.54;59.95
29879;BME280;16752;53.364;-1.488;2023-12-07T09:39:54;99505.13;;;10.64;59.35
29879;BME280;16752;53.364;-1.488;2023-12-07T09:42:38;99496.84;;;10.26;60.25
29879;BME280;16752;53.364;-1.488;2023-12-07T09:45:23;99494.53;;;10.98;58.53
29879;BME280;16752;53.364;-1.488;2023-12-07T09:48:07;99479.13;;;11.16;57.83
29879;BME280;16752;53.364;-1.488;2023-12-07T09:50:53;99448.47;;;10.63;59.15
29879;BME280;16752;53.364;-1.488;2023-12-07T09:53:42;99480.56;;;10.77;59.44
29879;BME280;16752;53.364;-1.488;2023-12-07T09:56:27;99476.94;;;10.34;60.58
29879;BME280;16752;53.364;-1.488;2023-12-07T09:59:11;99462.94;;;10.24;60.31
29879;BME280;16752;53.364;-1.488;2023-12-07T10:01:55;99435.25;;;10.65;59.49
29879;BME280;16752;53.364;-1.488;2023-12-07T10:04:39;99448.63;;;10.06;60.78
29879;BME280;16752;53.364;-1.488;2023-12-07T10:07:32;99435.19;;;10.44;60.08
29879;BME280;16752;53.364;-1.488;2023-12-07T10:10:18;99458.19;;;11.05;58.56
29879;BME280;16752;53.364;-1.488;2023-12-07T10:13:02;99453.72;;;11.16;58.16
29879;BME280;16752;53.364;-1.488;2023-12-07T10:15:47;99439.97;;;11.24;58.24
29879;BME280;16752;53.364;-1.488;2023-12-07T10:18:32;99440.13;;;10.58;61.05
29879;BME280;16752;53.364;-1.488;2023-12-07T10:21:31;99436.56;;;10.91;60.03
29879;BME280;16752;53.364;-1.488;2023-12-07T10:24:17;99442.41;;;10.84;59.57
29879;BME280;16752;53.364;-1.488;2023-12-07T10:27:01;99422.94;;;10.77;59.68
29879;BME280;16752;53.364;-1.488;2023-12-07T10:29:45;99436.34;;;10.83;59.88
29879;BME280;16752;53.364;-1.488;2023-12-07T10:32:29;99428.34;;;11.38;57.86
29879;BME280;16752;53.364;-1.488;2023-12-07T10:35:13;99410.84;;;11.69;57.45
29879;BME280;16752;53.364;-1.488;2023-12-07T10:37:57;99410.22;;;11.55;57.89
29879;BME280;16752;53.364;-1.488;2023-12-07T10:40:41;99426.81;;;10.82;59.56
29879;BME280;16752;53.364;-1.488;2023-12-07T10:43:26;99408.72;;;10.90;59.81
29879;BME280;16752;53.364;-1.488;2023-12-07T10:46:14;99407.81;;;11.22;59.00
29879;BME280;16752;53.364;-1.488;2023-12-07T10:49:04;99403.47;;;11.11;59.51
29879;BME280;16752;53.364;-1.488;2023-12-07T10:51:58;99390.66;;;11.59;58.45
29879;BME280;16752;53.364;-1.488;2023-12-07T10:54:51;99375.47;;;11.32;58.80
29879;BME280;16752;53.364;-1.488;2023-12-07T10:57:38;99361.91;;;10.65;60.66
29879;BME280;16752;53.364;-1.488;2023-12-07T11:00:24;99341.47;;;11.00;59.74
29879;BME280;16752;53.364;-1.488;2023-12-07T11:03:08;99348.59;;;10.57;60.65
29879;BME280;16752;53.364;-1.488;2023-12-07T11:05:53;99349.97;;;11.44;58.91
29879;BME280;16752;53.364;-1.488;2023-12-07T11:08:40;99361.72;;;10.02;63.05
29879;BME280;16752;53.364;-1.488;2023-12-07T11:11:38;99346.56;;;10.81;61.06
29879;BME280;16752;53.364;-1.488;2023-12-07T11:14:23;99350.66;;;10.74;60.78
29879;BME280;16752;53.364;-1.488;2023-12-07T11:17:08;99335.81;;;11.26;60.01
29879;BME280;16752;53.364;-1.488;2023-12-07T11:19:52;99332.97;;;10.66;61.43
29879;BME280;16752;53.364;-1.488;2023-12-07T11:22:36;99337.31;;;10.77;60.81
29879;BME280;16752;53.364;-1.488;2023-12-07T11:25:20;99320.94;;;11.67;58.33
29879;BME280;16752;53.364;-1.488;2023-12-07T11:28:05;99304.22;;;11.68;58.69
29879;BME280;16752;53.364;-1.488;2023-12-07T11:30:50;99295.09;;;11.52;58.67
29879;BME280;16752;53.364;-1.488;2023-12-07T11:33:37;99287.59;;;11.08;59.69
29879;BME280;16752;53.364;-1.488;2023-12-07T11:36:23;99291.78;;;11.60;59.15
29879;BME280;16752;53.364;-1.488;2023-12-07T11:41:55;99286.09;;;11.85;58.19
29879;BME280;16752;53.364;-1.488;2023-12-07T11:44:47;99286.53;;;10.89;60.66
29879;BME280;16752;53.364;-1.488;2023-12-07T11:47:36;99294.50;;;10.67;61.25
29879;BME280;16752;53.364;-1.488;2023-12-07T11:50:20;99286.56;;;10.78;61.50
29879;BME280;16752;53.364;-1.488;2023-12-07T11:53:05;99272.47;;;10.90;61.40
29879;BME280;16752;53.364;-1.488;2023-12-07T11:55:51;99268.50;;;10.75;61.14
29879;BME280;16752;53.364;-1.488;2023-12-07T11:58:36;99262.94;;;11.20;60.51
29879;BME280;16752;53.364;-1.488;2023-12-07T12:01:20;99274.03;;;11.02;60.40
29879;BME280;16752;53.364;-1.488;2023-12-07T12:04:05;99249.09;;;10.57;62.02
29879;BME280;16752;53.364;-1.488;2023-12-07T12:06:49;99251.38;;;10.50;62.29
29879;BME280;16752;53.364;-1.488;2023-12-07T12:09:34;99231.44;;;10.80;60.49
29879;BME280;16752;53.364;-1.488;2023-12-07T12:12:18;99223.78;;;10.67;61.70
29879;BME280;16752;53.364;-1.488;2023-12-07T12:15:02;99237.19;;;11.04;60.73
29879;BME280;16752;53.364;-1.488;2023-12-07T12:17:47;99216.69;;;11.59;58.47
29879;BME280;16752;53.364;-1.488;2023-12-07T12:20:31;99210.63;;;10.57;61.30
29879;BME280;16752;53.364;-1.488;2023-12-07T12:23:16;99220.09;;;10.49;61.78
29879;BME280;16752;53.364;-1.488;2023-12-07T12:26:01;99210.16;;;11.93;57.54
29879;BME280;16752;53.364;-1.488;2023-12-07T12:28:45;99189.78;;;10.46;61.41
29879;BME280;16752;53.364;-1.488;2023-12-07T12:31:29;99186.03;;;10.69;60.62
29879;BME280;16752;53.364;-1.488;2023-12-07T12:34:13;99196.03;;;11.25;59.71
29879;BME280;16752;53.364;-1.488;2023-12-07T12:36:57;99195.88;;;11.08;60.53
29879;BME280;16752;53.364;-1.488;2023-12-07T12:39:41;99193.56;;;11.24;59.49
29879;BME280;16752;53.364;-1.488;2023-12-07T12:42:25;99178.59;;;11.64;58.60
29879;BME280;16752;53.364;-1.488;2023-12-07T12:45:09;99155.13;;;10.63;60.51
29879;BME280;16752;53.364;-1.488;2023-12-07T12:47:57;99173.25;;;11.07;60.25
29879;BME280;16752;53.364;-1.488;2023-12-07T12:50:41;99157.41;;;10.26;62.08
29879;BME280;16752;53.364;-1.488;2023-12-07T12:53:27;99165.53;;;11.24;59.30
29879;BME280;16752;53.364;-1.488;2023-12-07T12:56:11;99148.03;;;11.25;59.72
29879;BME280;16752;53.364;-1.488;2023-12-07T12:58:55;99151.44;;;11.95;57.74
29879;BME280;16752;53.364;-1.488;2023-12-07T13:01:42;99133.59;;;11.50;58.41
29879;BME280;16752;53.364;-1.488;2023-12-07T13:04:26;99134.28;;;10.92;60.15
29879;BME280;16752;53.364;-1.488;2023-12-07T13:07:14;99126.81;;;11.28;59.80
29879;BME280;16752;53.364;-1.488;2023-12-07T13:09:58;99113.56;;;10.80;60.92
29879;BME280;16752;53.364;-1.488;2023-12-07T13:12:42;99114.72;;;10.35;62.02
29879;BME280;16752;53.364;-1.488;2023-12-07T13:15:26;99114.50;;;11.19;59.31
29879;BME280;16752;53.364;-1.488;2023-12-07T13:18:10;99102.66;;;11.34;59.21
29879;BME280;16752;53.364;-1.488;2023-12-07T13:20:54;99091.66;;;11.79;57.94
29879;BME280;16752;53.364;-1.488;2023-12-07T13:23:38;99081.25;;;11.48;58.20
29879;BME280;16752;53.364;-1.488;2023-12-07T13:26:22;99089.47;;;10.95;60.47
29879;BME280;16752;53.364;-1.488;2023-12-07T13:29:07;99089.41;;;11.45;59.43
29879;BME280;16752;53.364;-1.488;2023-12-07T13:31:51;99076.16;;;11.76;58.28
29879;BME280;16752;53.364;-1.488;2023-12-07T13:34:35;99066.84;;;10.85;61.39
29879;BME280;16752;53.364;-1.488;2023-12-07T13:37:19;99050.84;;;10.88;60.05
29879;BME280;16752;53.364;-1.488;2023-12-07T13:40:05;99038.53;;;10.69;60.85
29879;BME280;16752;53.364;-1.488;2023-12-07T13:42:53;99016.56;;;10.60;60.89
29879;BME280;16752;53.364;-1.488;2023-12-07T13:45:38;99035.03;;;11.57;58.44
29879;BME280;16752;53.364;-1.488;2023-12-07T13:48:21;99030.03;;;11.06;60.36
29879;BME280;16752;53.364;-1.488;2023-12-07T13:51:05;99023.69;;;11.27;59.16
29879;BME280;16752;53.364;-1.488;2023-12-07T13:53:50;98999.16;;;10.90;60.25
29879;BME280;16752;53.364;-1.488;2023-12-07T13:56:39;99001.91;;;10.88;59.80
29879;BME280;16752;53.364;-1.488;2023-12-07T13:59:24;99011.00;;;11.03;59.94
29879;BME280;16752;53.364;-1.488;2023-12-07T14:02:08;99009.03;;;10.67;61.16
29879;BME280;16752;53.364;-1.488;2023-12-07T14:04:52;98991.97;;;11.21;59.88
29879;BME280;16752;53.364;-1.488;2023-12-07T14:07:36;98993.09;;;11.28;59.69
29879;BME280;16752;53.364;-1.488;2023-12-07T14:10:20;98988.22;;;10.75;61.14
29879;BME280;16752;53.364;-1.488;2023-12-07T14:13:04;98991.72;;;11.33;59.16
29879;BME280;16752;53.364;-1.488;2023-12-07T14:15:48;98955.66;;;11.45;58.94
29879;BME280;16752;53.364;-1.488;2023-12-07T14:18:32;98919.28;;;10.84;59.78
29879;BME280;16752;53.364;-1.488;2023-12-07T14:21:19;98972.69;;;11.31;59.16
29879;BME280;16752;53.364;-1.488;2023-12-07T14:24:04;98976.84;;;12.00;57.01
29879;BME280;16752;53.364;-1.488;2023-12-07T14:26:48;98967.13;;;11.44;58.47
29879;BME280;16752;53.364;-1.488;2023-12-07T14:29:33;98966.81;;;11.67;58.13